Strona główna
METAR-TAF:

METAR-TAF

Lotnisko :

Port lotniczy Użhorod

Użhorod, Ukraina

Szerokość geograficzna: 48-38-05N, Długość geograficzna: 022-15-53E, wysokość: 117 m

Aktualna obserwacja pogody

Raport powstał 15 minut temu, godzina 06:00 UTC
Cisza
Temperatura 8°C
Wilgotność 100%
Ciśnienie 1021 hPa
Widzialność: 2100 m
zamglenie

METAR: UKLU 200600Z 00000MPS 2100 BR NSC 08/08 Q1021 R10/090070 NOSIG

czas: 09:15 (06:15 UTC)

Prognoza

Raport powstał 1 godzina i 12 minut temu, godzina 05:03 UTC
Prognoza ważna od 20 godzina 06 UTC do 20 godzina 15 UTC
Wiatr 2 kt z kierunków zmiennych
Widzialność 10 km lub więcej
Przejściowo
od 20 godzina 06 UTC do 20 godzina 09 UTC
Widzialność: 2000 m
Przerywane chmury na wysokości 2000 ft
Płytka mgła, zamglenie

TAF: UKLU 200503Z 2006/2015 VRB01MPS 9999 NSC TEMPO 2006/2009 2000 MIFG BR BKN020

Obserwacja i prognoza pogody dla ponad 4000 lotnisk (raport METAR i TAF).

Dostępne stacje oznaczono żółtymi i czerwonymi punktami na mapie.

Najedź kursorem aby zobaczyć nazwę stacji.

Kliknij aby zobaczyć obserwacje i prognozy pogody.

Aby zmienić mapę: kliknij na zielony przycisk z czarnym krzyżykiem, aby powiększyć; na zielony przycisk z myślnikiem, aby pomniejszyć; na zielone strzałki, aby przejść do map sąsiednich.


METAR-TAF: